Dulles, VA

6:40 PM EST on February 01, 2015 (GMT -0500)
Washington Dulles International | Change Station
CLOSE
Current Station
Airport
Location: Dulles Airport,
Elevation: 322 ft
Nearby Weather Stations

Elev 322 ft 38.93 °N, 77.45 °W | Updated 48 minutes ago

Overcast
Overcast
38 °F
Feels Like 34 °F
N
5
Wind Variable Wind from SSE

Today
High -- | Low -- °F
--% Chance of Precip.
Yesterday
High -- | Low -- °F
Precip. -- in
7:16 AM 5:30 PM
Waxing Gibbous, 96% visible
Pressure 30.05 in
Visibility 10.0 miles
Clouds Overcast 10000 ft
Windchill 34 °F
Dew Point 17 °F
Humidity 43%
Rainfall 0.00 in
Snow Depth Not available.
UV 0 out of 12
Pollen .30 out of 12
Air Quality Not available.
Flu Activity Not available.
METAR KIAD 012252Z 15004KT 10SM OVC100 03/M08 A3004 RMK AO2 SLP176 T00331083

More Conditions Fewer Conditions

Pressure 30.05 in
Visibility 10.0 miles
Clouds Overcast 10000 ft
Windchill 34 °F
Dew Point 17 °F
Humidity 43%
Rainfall 0.00 in
Snow Depth Not available.
UV 0 out of 12
Pollen .30 out of 12
Air Quality Not available.
Flu Activity Not available.
METAR KIAD 012252Z 15004KT 10SM OVC100 03/M08 A3004 RMK AO2 SLP176 T00331083

More Conditions Fewer Conditions

10-Day Weather Forecast

Almanac

Astronomy

Feb. 01, 2015 Rise Set
Actual Time
Civil Twilight
Nautical Twilight
Astronomical Twilight
Moon
Length of Visible Light
Length of Day
Tomorrow will be .
, % of the Moon is Illuminated

Today's Extremes

State Highs State Lows

Community

WunderPhotos

Upload Photos

1,792,612 photos uploaded!

WunderBlogs® & News

Nearby

Air Quality

  Air Quality AQ Index Pollutant
Not available.

Snow Depth

Station Depth Elevation

Earthquake Activity

City Distance Mag. Time & Date
Minimum magnitude displayed is 2.5.

Coastal Water Temperatures

Place Temperature

Nearby Weather Stations